This is the latest recevied weather packets stored in our database for station/object p43g-13. If no packets are shown the sender has not sent any weather packets the latest 10 day(s).
| Time | Temp. | Humidity | Pressure | Rain* | Wind** | Luminosity | Snow |
|---|---|---|---|---|---|---|---|
| 1787765140 | 31.67° C | 76% | 1011.8 hPa | 0 mm | - | 1056 W/m² | - |
| 1787764839 | 32.22° C | 74% | 1011.8 hPa | 0 mm | - | 1093 W/m² | - |
| 1787764539 | 32.22° C | 73% | 1011.8 hPa | 0 mm | - | 1038 W/m² | - |
| 1787764239 | 31.67° C | 75% | 1011.7 hPa | 0 mm | - | 1081 W/m² | - |
| 1787763939 | 31.11° C | 75% | 1012 hPa | 0 mm | - | 1059 W/m² | - |
| 1787763639 | 31.11° C | 76% | 1011.9 hPa | 0 mm | - | 407 W/m² | - |
| 1787763339 | 31.11° C | 75% | 1012.1 hPa | 0 mm | - | 1100 W/m² | - |
| 1787763039 | 31.67° C | 75% | 1012.2 hPa | 0 mm | - | 759 W/m² | - |
| 1787762739 | 31.67° C | 75% | 1012.4 hPa | 0 mm | - | 1087 W/m² | - |
| 1787762439 | 31.67° C | 75% | 1012.4 hPa | 0 mm | - | 459 W/m² | - |
| 1787762139 | 32.22° C | 74% | 1012.6 hPa | 0 mm | - | 410 W/m² | - |
| 1787761839 | 31.67° C | 74% | 1012.6 hPa | 0 mm | - | 403 W/m² | - |
| 1787761539 | 32.22° C | 73% | 1012.5 hPa | 0 mm | - | 598 W/m² | - |
| 1787761239 | 32.22° C | 73% | 1012.6 hPa | 0 mm | - | 1134 W/m² | - |
| 1787760938 | 31.67° C | 73% | 1012.8 hPa | 0 mm | - | 608 W/m² | - |
| 1787760640 | 31.67° C | 74% | 1012.8 hPa | 0 mm | - | 1020 W/m² | - |
| 1787760338 | 31.67° C | 75% | 1012.7 hPa | 0 mm | - | 456 W/m² | - |
| 1787760039 | 31.67° C | 74% | 1012.9 hPa | 0 mm | - | 1053 W/m² | - |
| 1787759739 | 31.67° C | 73% | 1012.8 hPa | 0 mm | - | 372 W/m² | - |
| 1787759439 | 32.22° C | 73% | 1012.8 hPa | 0 mm | - | 564 W/m² | - |
| 1787759139 | 31.67° C | 74% | 1012.8 hPa | 0 mm | - | 599 W/m² | - |
| 1787758839 | 31.67° C | 75% | 1013 hPa | 0 mm | - | 473 W/m² | - |
| 1787758539 | 32.78° C | 72% | 1012.7 hPa | 0 mm | - | 409 W/m² | - |
| 1787758239 | 31.67° C | 73% | 1012.8 hPa | 0 mm | - | 865 W/m² | - |
| 1787757939 | 31.67° C | 74% | 1012.6 hPa | 0 mm | - | 908 W/m² | - |
* Rain latest hour (hover to see other rain measurements)
** Current wind speed in m/s (hover to see current wind gust speed)